RYR771U EGBB-EICK
Flight info
| Callsign | RYR771U |
|---|---|
| Flight time | N/A |
| Altitude | 34000 |
| Route | BRUM1M BRUMI N92 BUCGO L9 TIGWE FELCA OFSOX BANBA VAPAL VAPA1G |
| Aircraft | B738/M-SDE2E3FGHIRWXY/LB1 |
Departure
| Time | 2026-05-05 18:26 |
|---|---|
| Airport | Birmingham Airport (EGBB) |
Arrival
| Time | N/A |
|---|---|
| Airport | Cork International Airport (EICK) |
| Time | Latitude | Longitude | Altitude | Speed | Heading |
|---|---|---|---|---|---|
| 2026-05-05 18:20 | 52.45499 | -1.73529 | 321 ft | 0 kts | 236° |
| 2026-05-05 18:20 | 52.45494 | -1.73541 | 321 ft | 5 kts | 235° |
| 2026-05-05 18:20 | 52.45462 | -1.73618 | 322 ft | 9 kts | 236° |
| 2026-05-05 18:21 | 52.45428 | -1.73700 | 322 ft | 9 kts | 236° |
| 2026-05-05 18:21 | 52.45389 | -1.73795 | 321 ft | 12 kts | 236° |
| 2026-05-05 18:21 | 52.45337 | -1.73921 | 322 ft | 14 kts | 235° |
| 2026-05-05 18:21 | 52.45285 | -1.73970 | 322 ft | 7 kts | 173° |
| 2026-05-05 18:22 | 52.45237 | -1.73927 | 322 ft | 10 kts | 146° |
| 2026-05-05 18:22 | 52.45173 | -1.73855 | 322 ft | 11 kts | 146° |
| 2026-05-05 18:22 | 52.45104 | -1.73779 | 323 ft | 13 kts | 146° |
| 2026-05-05 18:22 | 52.45015 | -1.73722 | 321 ft | 14 kts | 145° |
| 2026-05-05 18:23 | 52.44934 | -1.73644 | 323 ft | 13 kts | 170° |
| 2026-05-05 18:23 | 52.44845 | -1.73675 | 323 ft | 13 kts | 196° |
| 2026-05-05 18:23 | 52.44756 | -1.73718 | 323 ft | 13 kts | 197° |
| 2026-05-05 18:23 | 52.44671 | -1.73684 | 323 ft | 14 kts | 146° |
| 2026-05-05 18:24 | 52.44579 | -1.73582 | 323 ft | 18 kts | 146° |
| 2026-05-05 18:24 | 52.44461 | -1.73450 | 323 ft | 19 kts | 146° |
| 2026-05-05 18:24 | 52.44368 | -1.73440 | 322 ft | 14 kts | 229° |
| 2026-05-05 18:24 | 52.44316 | -1.73563 | 323 ft | 13 kts | 238° |
| 2026-05-05 18:25 | 52.44352 | -1.73654 | 323 ft | 1 kts | 326° |
| 2026-05-05 18:25 | 52.44352 | -1.73655 | 323 ft | 0 kts | 325° |
| 2026-05-05 18:25 | 52.44391 | -1.73697 | 323 ft | 29 kts | 327° |
| 2026-05-05 18:25 | 52.44778 | -1.74126 | 323 ft | 104 kts | 326° |
| 2026-05-05 18:26 | 52.45589 | -1.75027 | 484 ft | 165 kts | 327° |
| 2026-05-05 18:26 | 52.46520 | -1.76078 | 1783 ft | 162 kts | 328° |
| 2026-05-05 18:26 | 52.47467 | -1.77165 | 2690 ft | 169 kts | 328° |
| 2026-05-05 18:26 | 52.48459 | -1.78256 | 3491 ft | 174 kts | 328° |
| 2026-05-05 18:27 | 52.49497 | -1.79395 | 4225 ft | 187 kts | 329° |
| 2026-05-05 18:27 | 52.50621 | -1.80636 | 4804 ft | 201 kts | 326° |
| 2026-05-05 18:27 | 52.51511 | -1.82484 | 5339 ft | 216 kts | 294° |
| 2026-05-05 18:27 | 52.51770 | -1.84970 | 5867 ft | 232 kts | 268° |
| 2026-05-05 18:28 | 52.50726 | -1.90314 | 6977 ft | 260 kts | 227° |
| 2026-05-05 18:28 | 52.49287 | -1.92142 | 7736 ft | 270 kts | 208° |
| 2026-05-05 18:28 | 52.47550 | -1.93479 | 8457 ft | 280 kts | 204° |
| 2026-05-05 18:29 | 52.45733 | -1.94750 | 9286 ft | 287 kts | 205° |
| 2026-05-05 18:29 | 52.43885 | -1.96032 | 10179 ft | 290 kts | 205° |
| 2026-05-05 18:29 | 52.41984 | -1.97391 | 10654 ft | 310 kts | 206° |
| 2026-05-05 18:29 | 52.39933 | -1.98890 | 10847 ft | 335 kts | 206° |
| 2026-05-05 18:30 | 52.37716 | -2.00471 | 11039 ft | 361 kts | 201° |
| 2026-05-05 18:30 | 52.35191 | -2.01367 | 11413 ft | 379 kts | 189° |
| 2026-05-05 18:30 | 52.32556 | -2.01910 | 12127 ft | 384 kts | 188° |
| 2026-05-05 18:30 | 52.29905 | -2.02450 | 12989 ft | 385 kts | 189° |
| 2026-05-05 18:31 | 52.27236 | -2.03023 | 13768 ft | 389 kts | 189° |
| 2026-05-05 18:31 | 52.24579 | -2.03625 | 14412 ft | 393 kts | 189° |
| 2026-05-05 18:31 | 52.21827 | -2.04269 | 15115 ft | 396 kts | 190° |
| 2026-05-05 18:31 | 52.19083 | -2.04916 | 15804 ft | 399 kts | 190° |
| 2026-05-05 18:32 | 52.16347 | -2.05754 | 16447 ft | 402 kts | 198° |
| 2026-05-05 18:32 | 52.13766 | -2.07479 | 17107 ft | 403 kts | 210° |
| 2026-05-05 18:32 | 52.11440 | -2.10005 | 17785 ft | 403 kts | 221° |
| 2026-05-05 18:32 | 52.09365 | -2.13098 | 18380 ft | 407 kts | 224° |
| 2026-05-05 18:33 | 52.07310 | -2.16293 | 18937 ft | 410 kts | 225° |
| 2026-05-05 18:33 | 52.05270 | -2.19456 | 19548 ft | 411 kts | 224° |
| 2026-05-05 18:33 | 52.03181 | -2.22654 | 20088 ft | 414 kts | 224° |
| 2026-05-05 18:33 | 52.01065 | -2.25856 | 20616 ft | 418 kts | 224° |
| 2026-05-05 18:34 | 51.98927 | -2.29065 | 21159 ft | 420 kts | 224° |
| 2026-05-05 18:34 | 51.96778 | -2.32281 | 21699 ft | 422 kts | 224° |
| 2026-05-05 18:34 | 51.94608 | -2.35524 | 22208 ft | 425 kts | 224° |
| 2026-05-05 18:34 | 51.92423 | -2.38787 | 22704 ft | 428 kts | 224° |
| 2026-05-05 18:35 | 51.90229 | -2.42061 | 23193 ft | 431 kts | 224° |
| 2026-05-05 18:35 | 51.88013 | -2.45364 | 23648 ft | 434 kts | 224° |
| 2026-05-05 18:35 | 51.85790 | -2.48676 | 24038 ft | 436 kts | 224° |
| 2026-05-05 18:35 | 51.83552 | -2.52003 | 24436 ft | 438 kts | 223° |
| 2026-05-05 18:36 | 51.81290 | -2.55327 | 24833 ft | 440 kts | 223° |
| 2026-05-05 18:36 | 51.79235 | -2.58982 | 25178 ft | 442 kts | 237° |
| 2026-05-05 18:36 | 51.77899 | -2.63449 | 25565 ft | 443 kts | 252° |
| 2026-05-05 18:36 | 51.77305 | -2.68333 | 25938 ft | 446 kts | 267° |
| 2026-05-05 18:37 | 51.77474 | -2.73341 | 26310 ft | 449 kts | 275° |
| 2026-05-05 18:37 | 51.77823 | -2.78369 | 26630 ft | 452 kts | 276° |
| 2026-05-05 18:37 | 51.78196 | -2.83425 | 26923 ft | 455 kts | 276° |
| 2026-05-05 18:37 | 51.78560 | -2.88498 | 27239 ft | 457 kts | 275° |
| 2026-05-05 18:38 | 51.78907 | -2.93626 | 27654 ft | 457 kts | 275° |
| 2026-05-05 18:38 | 51.79234 | -2.98712 | 28177 ft | 455 kts | 275° |
| 2026-05-05 18:38 | 51.79548 | -3.03778 | 28674 ft | 453 kts | 275° |
| 2026-05-05 18:38 | 51.79857 | -3.08834 | 29135 ft | 452 kts | 275° |
| 2026-05-05 18:39 | 51.80165 | -3.13888 | 29550 ft | 452 kts | 275° |
| 2026-05-05 18:39 | 51.80471 | -3.18930 | 30014 ft | 451 kts | 275° |
| 2026-05-05 18:39 | 51.80773 | -3.23965 | 30409 ft | 449 kts | 275° |
| 2026-05-05 18:39 | 51.81072 | -3.28984 | 30792 ft | 449 kts | 275° |
| 2026-05-05 18:40 | 51.81369 | -3.34014 | 31054 ft | 451 kts | 275° |
| 2026-05-05 18:40 | 51.81660 | -3.38969 | 31319 ft | 452 kts | 276° |
| 2026-05-05 18:40 | 51.81962 | -3.44131 | 31622 ft | 453 kts | 276° |
| 2026-05-05 18:40 | 51.82256 | -3.49191 | 31970 ft | 451 kts | 276° |
| 2026-05-05 18:41 | 51.83088 | -3.59247 | 32002 ft | 457 kts | 282° |